Time;durP1;ratioP1;P1;durP2;ratioP2;P2;SDS_P1;SDS_P2;PMS_P1;PMS_P2;Temp;Humidity;BMP_temperature;BMP_pressure;BME280_temperature;BME280_humidity;BME280_pressure;Samples;Min_cycle;Max_cycle;Signal;HPM_P1;HPM_P2
2022/07/17 00:01:10;;;;;;;2.40;1.67;;;16.10;91.30;;;17.08;73.59;99040.72;5079782;28;20467;-77
2022/07/17 00:03:41;;;;;;;2.27;1.60;;;16.00;91.50;;;17.08;73.50;99047.81;5078449;28;20466;-77
2022/07/17 00:06:12;;;;;;;4.07;1.80;;;16.10;91.40;;;17.01;74.12;99047.00;5078278;28;20480;-77
2022/07/17 00:08:41;;;;;;;2.63;1.70;;;16.10;91.30;;;16.98;74.35;99048.25;5080440;28;20932;-77
2022/07/17 00:11:13;;;;;;;2.90;1.73;;;16.00;91.60;;;16.99;75.24;99046.41;5079496;28;20480;-77
2022/07/17 00:13:45;;;;;;;2.40;1.53;;;15.90;92.00;;;16.95;74.56;99039.91;5078950;28;21214;-77
2022/07/17 00:16:14;;;;;;;3.97;1.67;;;15.90;91.60;;;16.85;75.00;99044.78;5080050;28;20523;-77
2022/07/17 00:18:45;;;;;;;2.03;1.57;;;15.90;91.60;;;16.77;75.55;99043.13;5080354;28;20447;-77
2022/07/17 00:21:15;;;;;;;3.67;1.63;;;15.70;91.80;;;16.70;76.07;99039.69;5082050;28;20452;-77
2022/07/17 00:23:45;;;;;;;2.70;1.50;;;15.60;91.90;;;16.63;76.36;99035.41;5079409;28;20474;-77
2022/07/17 00:26:15;;;;;;;6.20;1.90;;;15.60;91.80;;;16.56;76.90;99035.38;5081307;28;20440;-77
2022/07/17 00:28:46;;;;;;;4.70;1.70;;;15.70;91.60;;;16.52;76.90;99028.88;5079887;28;20448;-77
2022/07/17 00:31:16;;;;;;;6.33;1.80;;;15.60;91.70;;;16.49;77.21;99035.34;5080010;28;20491;-77
2022/07/17 00:33:46;;;;;;;2.40;1.80;;;15.60;91.80;;;16.45;77.40;99026.19;5080462;28;20471;-77
2022/07/17 00:36:15;;;;;;;2.20;1.57;;;15.50;92.00;;;16.41;77.63;99019.72;5080092;28;20832;-77
2022/07/17 00:38:45;;;;;;;9.20;1.63;;;15.40;91.90;;;16.29;78.87;99023.94;5079994;28;20464;-77
2022/07/17 00:41:18;;;;;;;2.27;1.60;;;15.30;92.30;;;16.25;78.92;99033.25;5081701;28;20458;-78
2022/07/17 00:43:47;;;;;;;2.60;1.57;;;15.20;92.10;;;16.19;79.71;99027.97;5080327;28;21019;-77
2022/07/17 00:46:17;;;;;;;3.30;1.67;;;15.10;92.50;;;16.19;79.49;99030.59;5078586;28;20522;-77
2022/07/17 00:48:46;;;;;;;3.83;1.87;;;15.10;92.30;;;16.19;79.45;99039.34;5081440;28;21180;-77
2022/07/17 00:51:17;;;;;;;4.10;1.73;;;15.10;92.50;;;16.22;79.50;99038.94;5078569;28;20498;-77
2022/07/17 00:53:49;;;;;;;1.90;1.43;;;15.10;92.50;;;16.18;79.35;99036.88;5079369;28;20459;-77
2022/07/17 00:56:23;;;;;;;7.43;1.70;;;15.10;92.40;;;16.11;79.53;99027.13;5081813;28;20454;-77
2022/07/17 00:58:53;;;;;;;3.03;1.47;;;15.10;92.50;;;16.10;79.83;99032.63;5080885;28;21168;-77
2022/07/17 01:01:24;;;;;;;3.10;1.47;;;15.00;92.50;;;16.12;79.94;99033.22;5081118;28;20531;-77
2022/07/17 01:03:54;;;;;;;6.97;1.90;;;15.00;92.50;;;16.07;79.89;99030.34;5079922;28;20478;-77
2022/07/17 01:06:26;;;;;;;2.23;1.30;;;14.90;92.50;;;16.02;80.11;99027.50;5079500;28;20460;-77
2022/07/17 01:08:57;;;;;;;2.87;1.53;;;15.00;92.60;;;15.98;80.03;99021.81;5074825;28;20490;-77
2022/07/17 01:11:28;;;;;;;2.50;1.73;;;14.90;92.50;;;15.97;80.33;99027.28;5077962;28;21182;-77
2022/07/17 01:14:00;;;;;;;5.80;1.90;;;14.90;92.60;;;15.95;80.04;99022.22;5079337;28;20505;-77
2022/07/17 01:16:30;;;;;;;3.13;1.60;;;14.90;92.50;;;15.90;80.30;99034.34;5078412;28;21727;-77
2022/07/17 01:18:59;;;;;;;2.20;1.70;;;14.90;92.50;;;15.83;80.82;99029.03;5080048;28;20455;-77
2022/07/17 01:21:41;;;;;;;2.97;1.63;;;14.80;92.60;;;15.76;81.14;99025.56;5073665;28;20563;-77
2022/07/17 01:24:12;;;;;;;2.47;1.63;;;14.80;92.60;;;15.70;81.67;99033.44;5078342;28;20451;-77
2022/07/17 01:26:42;;;;;;;3.30;1.70;;;14.70;92.90;;;15.71;81.90;99037.72;5075813;28;20498;-77
2022/07/17 01:29:16;;;;;;;3.50;1.60;;;14.60;92.90;;;15.72;82.29;99034.91;5077405;28;20473;-77
2022/07/17 01:31:49;;;;;;;2.40;1.57;;;14.60;92.80;;;15.65;82.00;99035.88;5076516;28;20509;-77
2022/07/17 01:34:19;;;;;;;1.80;1.50;;;14.60;92.80;;;15.57;82.60;99034.19;5077374;28;20455;-77
2022/07/17 01:36:50;;;;;;;3.03;2.03;;;14.50;93.00;;;15.52;82.64;99028.66;5077891;28;20999;-77
2022/07/17 01:39:52;;;;;;;2.90;1.60;;;14.50;92.90;;;15.52;83.12;99037.41;5076486;28;20464;-77
2022/07/17 01:42:09;;;;;;;2.57;1.60;;;14.40;93.10;;;15.49;82.78;99035.16;5076388;28;20462;-77
2022/07/17 01:44:41;;;;;;;4.23;1.70;;;14.40;92.90;;;15.48;83.48;99036.16;5078462;28;20463;-77
2022/07/17 01:47:10;;;;;;;4.13;1.50;;;14.40;93.30;;;15.43;83.68;99032.47;5075795;28;20459;-77
2022/07/17 01:49:45;;;;;;;2.57;1.60;;;14.30;93.20;;;15.36;83.97;99029.78;5075104;28;20460;-77
2022/07/17 01:52:16;;;;;;;2.63;1.50;;;14.30;93.20;;;15.33;84.23;99029.34;5079844;28;20486;-77
2022/07/17 01:54:46;;;;;;;2.30;1.30;;;14.20;93.20;;;15.32;83.81;99030.34;5077733;28;20525;-77
2022/07/17 01:57:16;;;;;;;2.57;1.30;;;14.30;93.00;;;15.28;84.43;99024.66;5076243;28;20907;-77
2022/07/17 01:59:45;;;;;;;2.30;1.50;;;14.20;93.30;;;15.29;84.83;99026.28;5075436;28;20499;-78
2022/07/17 02:02:16;;;;;;;3.27;1.70;;;14.20;93.20;;;15.22;84.69;99025.44;5075196;28;20455;-77
2022/07/17 02:04:46;;;;;;;2.77;1.50;;;14.20;93.30;;;15.16;84.74;99031.47;5077727;28;20472;-77
2022/07/17 02:07:17;;;;;;;2.70;1.60;;;14.20;93.10;;;15.12;85.02;99030.22;5073903;28;20903;-77
2022/07/17 02:09:47;;;;;;;7.70;1.40;;;14.20;93.00;;;15.06;85.25;99037.06;5078995;28;20579;-77
2022/07/17 02:12:17;;;;;;;4.13;1.60;;;14.20;93.00;;;15.02;85.08;99027.09;5075423;28;20549;-78
2022/07/17 02:14:47;;;;;;;3.93;1.70;;;14.10;93.10;;;14.99;85.37;99022.22;5076838;28;20466;-77
2022/07/17 02:17:18;;;;;;;3.40;1.80;;;14.00;93.30;;;14.90;86.09;99026.81;5076767;28;20866;-77
2022/07/17 02:19:48;;;;;;;2.13;1.83;;;13.90;93.40;;;14.85;86.68;99023.13;5078935;28;20456;-77
2022/07/17 02:22:19;;;;;;;6.37;1.40;;;13.80;93.60;;;14.85;86.99;99023.13;5076055;28;20474;-77
2022/07/17 02:24:48;;;;;;;9.20;1.50;;;13.80;93.80;;;14.87;86.43;99029.00;5077605;28;20525;-77
2022/07/17 02:27:19;;;;;;;4.87;1.80;;;13.80;93.70;;;14.85;86.27;99026.56;5077843;28;20460;-77
2022/07/17 02:29:49;;;;;;;2.37;1.50;;;13.90;93.40;;;14.76;87.07;99027.69;5075628;28;20538;-77
2022/07/17 02:32:18;;;;;;;2.93;1.70;;;13.80;93.30;;;14.74;87.43;99027.06;5073868;28;20506;-77
2022/07/17 02:34:49;;;;;;;7.83;1.80;;;13.80;93.80;;;14.69;87.54;99028.63;5075016;28;20551;-77
2022/07/17 02:37:19;;;;;;;3.37;1.60;;;13.70;93.60;;;14.66;87.64;99029.81;5078132;28;20559;-77
2022/07/17 02:39:53;;;;;;;2.43;1.70;;;13.70;93.50;;;14.58;88.03;99022.88;5077602;28;20467;-77
2022/07/17 02:42:23;;;;;;;5.63;1.43;;;13.60;93.60;;;14.55;88.76;99025.88;5074116;28;20460;-77
2022/07/17 02:44:53;;;;;;;2.20;1.57;;;13.50;94.00;;;14.51;89.06;99031.69;5076415;28;20528;-77
2022/07/17 02:47:24;;;;;;;4.57;1.40;;;13.40;94.20;;;14.49;88.60;99036.34;5076607;28;20529;-77
2022/07/17 02:49:53;;;;;;;3.90;1.80;;;13.50;93.80;;;14.51;88.83;99023.81;5078263;28;20452;-77
2022/07/17 02:52:23;;;;;;;4.33;1.60;;;13.50;94.00;;;14.43;89.04;99032.66;5075635;28;20523;-77
2022/07/17 02:54:52;;;;;;;3.77;1.77;;;13.40;94.00;;;14.34;89.57;99030.31;5078520;28;20529;-77
2022/07/17 02:57:22;;;;;;;4.60;1.70;;;13.40;94.00;;;14.28;90.04;99025.75;5081848;28;20451;-78
2022/07/17 02:59:51;;;;;;;5.30;2.10;;;13.40;94.00;;;14.27;90.35;99030.22;5084056;28;20455;-77
2022/07/17 03:02:23;;;;;;;2.33;1.50;;;13.30;94.10;;;14.23;90.54;99028.94;5081904;28;20612;-77
2022/07/17 03:04:53;;;;;;;3.70;1.70;;;13.30;94.10;;;14.23;90.51;99028.94;5079074;28;20462;-77
2022/07/17 03:07:24;;;;;;;2.00;1.50;;;13.30;94.10;;;14.17;90.69;99029.69;5079219;28;20475;-77
2022/07/17 03:09:54;;;;;;;4.60;1.70;;;13.20;94.10;;;14.14;90.76;99040.59;5079466;28;20966;-77
2022/07/17 03:12:23;;;;;;;2.80;1.40;;;13.20;94.30;;;14.18;91.02;99035.78;5079463;28;20997;-77
2022/07/17 03:14:53;;;;;;;1.60;1.30;;;13.20;94.20;;;14.16;91.24;99028.06;5080056;28;20463;-77
2022/07/17 03:17:22;;;;;;;3.37;1.80;;;13.10;94.30;;;14.17;91.65;99027.06;5081516;28;20522;-77
2022/07/17 03:19:52;;;;;;;3.70;1.63;;;13.10;94.60;;;14.11;90.91;99033.06;5077335;28;20463;-77
2022/07/17 03:22:23;;;;;;;3.97;1.50;;;13.10;94.30;;;14.11;91.17;99031.25;5079026;28;20462;-77
2022/07/17 03:24:53;;;;;;;5.20;1.80;;;13.10;94.40;;;14.10;91.09;99034.06;5079700;28;20620;-77
2022/07/17 03:27:22;;;;;;;1.60;1.30;;;13.00;94.40;;;14.10;90.69;99040.16;5078662;28;20559;-77
2022/07/17 03:29:53;;;;;;;3.47;1.83;;;13.10;94.30;;;14.09;90.95;99029.81;5082941;28;20463;-77
2022/07/17 03:32:23;;;;;;;4.63;1.63;;;13.00;94.60;;;14.01;90.72;99033.38;5078701;28;20490;-77
2022/07/17 03:34:53;;;;;;;3.60;1.60;;;13.10;94.20;;;14.04;91.44;99029.56;5079775;28;20476;-77
2022/07/17 03:37:24;;;;;;;1.30;1.20;;;13.00;94.50;;;14.00;91.10;99030.91;5081879;28;20493;-77
2022/07/17 03:39:54;;;;;;;5.37;1.63;;;13.00;94.30;;;13.96;91.12;99040.16;5077027;28;20462;-77
2022/07/17 03:42:23;;;;;;;2.40;1.57;;;13.00;94.30;;;13.95;91.24;99041.19;5078057;28;20473;-77
2022/07/17 03:44:53;;;;;;;2.00;1.40;;;13.00;94.30;;;13.93;91.13;99043.16;5077974;28;20556;-77
2022/07/17 03:47:23;;;;;;;4.53;1.50;;;13.00;94.30;;;13.86;91.29;99037.00;5079854;28;20490;-77
2022/07/17 03:49:53;;;;;;;2.20;1.30;;;12.90;94.20;;;13.87;91.72;99038.66;5082757;28;20432;-77
2022/07/17 03:52:25;;;;;;;3.87;1.67;;;12.90;94.50;;;13.86;91.78;99039.63;5077695;28;20498;-77
2022/07/17 03:54:54;;;;;;;2.00;1.40;;;12.80;94.40;;;13.81;91.68;99034.94;5081052;28;20490;-77
2022/07/17 03:57:24;;;;;;;2.07;1.40;;;12.90;94.40;;;13.79;91.98;99036.09;5079275;28;20467;-77
2022/07/17 03:59:55;;;;;;;2.30;1.50;;;12.80;94.30;;;13.73;92.37;99034.22;5077427;28;20466;-77
2022/07/17 04:02:25;;;;;;;2.10;1.30;;;12.80;94.40;;;13.69;93.17;99036.41;5077808;28;20464;-77
2022/07/17 04:04:54;;;;;;;3.23;2.10;;;12.70;94.80;;;13.69;93.03;99030.31;5077305;28;20500;-77
2022/07/17 04:07:29;;;;;;;1.63;1.43;;;12.70;94.80;;;13.75;93.78;99034.84;5079195;28;20482;-77
2022/07/17 04:10:00;;;;;;;3.10;1.10;;;12.60;94.80;;;13.74;93.41;99043.75;5080874;28;20523;-77
2022/07/17 04:12:31;;;;;;;2.30;1.70;;;12.60;94.70;;;13.68;93.05;99036.56;5077490;28;20484;-77
2022/07/17 04:15:01;;;;;;;2.40;1.33;;;12.60;94.70;;;13.63;93.17;99044.19;5077556;28;20464;-77
2022/07/17 04:17:30;;;;;;;3.43;1.47;;;12.60;94.60;;;13.61;94.18;99044.38;5078754;28;20967;-77
2022/07/17 04:20:00;;;;;;;4.00;2.10;;;12.60;95.00;;;13.66;93.77;99051.72;5076688;28;20556;-77
2022/07/17 04:22:32;;;;;;;3.57;1.63;;;12.60;94.90;;;13.61;94.85;99049.63;5077672;28;20538;-78
2022/07/17 04:25:02;;;;;;;3.63;1.50;;;12.40;95.20;;;13.64;95.07;99051.88;5078221;28;20460;-77
2022/07/17 04:27:32;;;;;;;2.60;1.63;;;12.40;95.20;;;13.72;94.41;99061.50;5078802;28;20807;-77
2022/07/17 04:30:02;;;;;;;2.17;1.57;;;12.50;95.10;;;13.69;93.92;99059.22;5081248;28;20448;-77
2022/07/17 04:32:32;;;;;;;1.70;1.40;;;12.60;95.10;;;13.65;94.02;99061.41;5076592;28;20864;-77
2022/07/17 04:35:03;;;;;;;5.40;1.60;;;12.60;95.00;;;13.65;94.02;99060.59;5074939;28;20456;-77
2022/07/17 04:37:35;;;;;;;1.83;1.37;;;12.60;94.90;;;13.64;95.01;99070.28;5078974;28;20463;-77
2022/07/17 04:40:07;;;;;;;2.73;1.50;;;12.50;95.20;;;13.66;94.77;99067.47;5078864;28;20806;-77
2022/07/17 04:42:36;;;;;;;2.53;1.60;;;12.60;95.20;;;13.67;94.42;99069.94;5077236;28;20810;-77
2022/07/17 04:45:07;;;;;;;2.30;1.57;;;12.60;95.00;;;13.68;94.68;99076.00;5075771;28;20451;-77
2022/07/17 04:47:37;;;;;;;3.00;1.63;;;12.60;95.10;;;13.68;94.91;99070.72;5081629;28;20455;-77
2022/07/17 04:50:08;;;;;;;2.23;1.50;;;12.60;95.30;;;13.73;94.90;99076.28;5079843;28;20460;-77
2022/07/17 04:52:40;;;;;;;6.40;1.40;;;12.70;95.20;;;13.75;95.27;99069.84;5078994;28;20529;-77
2022/07/17 04:55:10;;;;;;;2.03;1.63;;;12.70;95.50;;;13.79;95.98;99070.28;5078020;28;20565;-77
2022/07/17 04:57:41;;;;;;;1.53;1.37;;;12.70;95.50;;;13.82;95.95;99073.38;5075917;28;20496;-77
2022/07/17 05:00:12;;;;;;;1.60;1.30;;;12.70;95.40;;;13.87;95.85;99070.19;5075717;28;20470;-76
2022/07/17 05:02:42;;;;;;;3.13;1.70;;;12.80;95.40;;;13.87;94.76;99067.56;5077253;28;20498;-77
2022/07/17 05:05:13;;;;;;;1.80;1.40;;;12.80;94.90;;;13.90;94.16;99077.72;5078471;28;20509;-77
2022/07/17 05:07:44;;;;;;;5.70;1.43;;;12.90;94.90;;;13.93;94.28;99077.34;5077402;28;20565;-77
2022/07/17 05:10:16;;;;;;;3.17;1.20;;;12.90;94.90;;;13.97;94.45;99070.72;5077476;28;20544;-77
2022/07/17 05:12:45;;;;;;;6.93;1.87;;;12.90;94.90;;;13.99;94.13;99073.97;5077826;28;20860;-77
2022/07/17 05:15:15;;;;;;;3.13;1.50;;;12.90;94.80;;;14.02;93.76;99084.16;5075356;28;20688;-77
2022/07/17 05:17:45;;;;;;;6.10;1.70;;;13.00;94.80;;;14.02;93.46;99089.44;5077873;28;20460;-77
2022/07/17 05:20:15;;;;;;;4.80;1.20;;;13.00;94.70;;;14.04;93.28;99080.34;5076415;28;20486;-77
2022/07/17 05:22:46;;;;;;;2.27;1.40;;;13.10;94.80;;;14.09;93.18;99079.81;5076967;28;20462;-77
2022/07/17 05:25:15;;;;;;;5.03;1.70;;;13.10;94.80;;;14.11;92.95;99075.97;5074894;28;20871;-77
2022/07/17 05:27:45;;;;;;;1.80;1.50;;;13.20;94.60;;;14.17;92.84;99081.50;5078342;28;20467;-77
2022/07/17 05:30:15;;;;;;;4.50;1.60;;;13.20;94.70;;;14.19;92.74;99076.88;5076574;28;20506;-77
2022/07/17 05:32:46;;;;;;;1.83;1.37;;;13.20;94.60;;;14.24;92.92;99080.56;5077530;28;20531;-77
2022/07/17 05:35:16;;;;;;;5.30;1.90;;;13.20;94.80;;;14.28;92.78;99071.31;5077047;28;20455;-77
2022/07/17 05:37:49;;;;;;;3.17;1.60;;;13.30;94.70;;;14.32;92.56;99080.47;5079188;28;20470;-77
2022/07/17 05:40:19;;;;;;;2.60;1.40;;;13.30;94.60;;;14.33;92.65;99071.59;5078646;28;20831;-77
2022/07/17 05:42:48;;;;;;;3.30;1.30;;;13.40;94.80;;;14.39;92.64;99075.31;5075579;28;20460;-77
2022/07/17 05:45:18;;;;;;;4.63;1.50;;;13.40;94.90;;;14.45;93.30;99079.81;5079341;28;20451;-77
2022/07/17 05:47:47;;;;;;;4.47;2.10;;;13.40;95.10;;;14.47;93.53;99068.09;5079214;28;20822;-77
2022/07/17 05:50:18;;;;;;;1.77;1.40;;;13.40;95.00;;;14.52;93.86;99072.81;5081981;28;20871;-77
2022/07/17 05:52:50;;;;;;;3.27;1.47;;;13.40;95.30;;;14.56;94.21;99072.25;5079129;28;20537;-77
2022/07/17 05:55:24;;;;;;;4.87;1.40;;;13.50;95.50;;;14.59;94.78;99077.16;5078099;28;21028;-77
2022/07/17 05:57:54;;;;;;;5.60;2.10;;;13.60;95.50;;;14.66;95.10;99076.41;5073415;28;20464;-84
2022/07/17 06:00:23;;;;;;;12.30;6.20;;;13.60;95.70;;;14.70;95.09;99077.66;5075448;28;20467;-77
2022/07/17 06:02:53;;;;;;;4.60;2.13;;;13.70;95.40;;;14.75;94.91;99081.34;5075106;28;21134;-77
2022/07/17 06:05:22;;;;;;;1.63;1.30;;;13.70;95.50;;;14.81;94.47;99079.78;5074647;28;20557;-77
2022/07/17 06:07:52;;;;;;;4.93;1.63;;;13.80;95.20;;;14.87;94.03;99076.41;5076415;28;21101;-77
2022/07/17 06:10:21;;;;;;;3.00;1.40;;;13.90;95.30;;;14.91;94.29;99075.03;5075056;28;21037;-77
2022/07/17 06:12:52;;;;;;;65.37;29.47;;;13.90;95.20;;;14.96;93.63;99081.34;5076749;28;20479;-82
2022/07/17 06:15:23;;;;;;;20.80;11.20;;;13.90;95.00;;;15.04;93.26;99081.22;5075360;28;20464;-77
2022/07/17 06:17:52;;;;;;;8.20;2.53;;;14.00;95.10;;;15.09;93.46;99073.59;5076577;28;20459;-77
2022/07/17 06:20:23;;;;;;;3.47;1.70;;;14.10;95.00;;;15.15;93.45;99073.81;5076277;28;20459;-77
2022/07/17 06:22:54;;;;;;;3.00;1.90;;;14.20;95.10;;;15.20;93.24;99063.53;5077230;28;20468;-77
2022/07/17 06:25:28;;;;;;;2.87;1.60;;;14.20;95.00;;;15.27;92.90;99059.13;5078457;28;20512;-77
2022/07/17 06:28:16;;;;;;;7.47;1.50;;;14.30;95.00;;;15.32;93.00;99065.44;5076214;28;20447;-77
2022/07/17 06:30:45;;;;;;;2.30;1.50;;;14.30;95.20;;;15.38;93.12;99062.03;5078798;28;20446;-77
2022/07/17 06:33:16;;;;;;;3.73;1.80;;;14.40;95.20;;;15.43;93.20;99058.81;5081217;28;20472;-77
2022/07/17 06:35:46;;;;;;;3.37;1.67;;;14.50;95.40;;;15.48;93.78;99062.53;5080636;28;20541;-83
2022/07/17 06:38:17;;;;;;;38.33;20.10;;;14.50;95.40;;;15.54;93.33;99059.13;5080987;28;20543;-78
2022/07/17 06:40:47;;;;;;;4.23;2.40;;;14.60;95.20;;;15.60;93.54;99060.16;5082206;28;20505;-77
2022/07/17 06:43:17;;;;;;;5.47;2.00;;;14.60;95.20;;;15.67;92.98;99061.03;5078101;28;20469;-77
2022/07/17 06:45:47;;;;;;;2.23;2.03;;;14.70;95.10;;;15.73;92.59;99070.78;5079512;28;20490;-78
2022/07/17 06:48:18;;;;;;;4.60;1.80;;;14.80;94.90;;;15.79;92.50;99071.84;5080603;28;20947;-77
2022/07/17 06:50:49;;;;;;;2.30;1.57;;;14.80;95.00;;;15.86;92.33;99065.56;5077508;28;20470;-77
2022/07/17 06:53:20;;;;;;;1.80;1.37;;;14.90;95.00;;;15.93;92.63;99071.69;5078089;28;20563;-77
2022/07/17 06:55:50;;;;;;;3.93;1.43;;;15.00;95.00;;;15.98;92.33;99071.13;5079120;28;20495;-77
2022/07/17 06:58:21;;;;;;;4.73;1.70;;;15.10;94.60;;;16.08;90.33;99063.66;5079532;28;20459;-77
2022/07/17 07:00:52;;;;;;;5.80;1.93;;;15.20;94.30;;;16.20;86.15;99067.38;5077753;28;20886;-83
2022/07/17 07:03:23;;;;;;;7.27;2.70;;;15.40;93.00;;;16.29;84.07;99058.25;5079553;28;20870;-77
2022/07/17 07:05:54;;;;;;;3.17;1.67;;;15.50;92.90;;;16.41;80.98;99058.50;5080489;28;20939;-77
2022/07/17 07:08:25;;;;;;;4.97;1.70;;;15.70;92.10;;;16.52;79.31;99061.34;5075825;28;20524;-77
2022/07/17 07:10:56;;;;;;;3.27;1.47;;;15.80;91.40;;;16.65;73.69;99067.72;5077537;28;20466;-77
2022/07/17 07:13:29;;;;;;;1.77;1.30;;;16.00;90.50;;;16.78;74.77;99070.38;5084178;28;20476;-77
2022/07/17 07:16:04;;;;;;;2.93;1.53;;;16.00;90.70;;;16.89;74.29;99072.44;5078346;28;20539;-77
2022/07/17 07:18:35;;;;;;;4.20;1.20;;;16.10;90.50;;;16.97;72.11;99075.66;5080046;28;20454;-77
2022/07/17 07:21:06;;;;;;;10.10;1.57;;;16.30;90.40;;;17.08;72.51;99076.91;5077173;28;20455;-77
2022/07/17 07:23:38;;;;;;;5.93;1.80;;;16.30;90.50;;;17.16;72.14;99073.25;5075286;28;20471;-77
2022/07/17 07:26:07;;;;;;;94.63;48.43;;;16.40;90.30;;;17.24;71.70;99071.22;5078999;28;21300;-77
2022/07/17 07:28:38;;;;;;;5.80;1.67;;;16.50;90.30;;;17.35;68.51;99075.91;5079992;28;20471;-77
2022/07/17 07:31:10;;;;;;;1.70;1.30;;;16.70;89.00;;;17.44;67.64;99064.06;5080714;28;20471;-78
2022/07/17 07:33:41;;;;;;;2.47;1.40;;;16.80;88.90;;;17.53;66.40;99064.66;5078125;28;20476;-83
2022/07/17 07:36:11;;;;;;;10.27;1.40;;;16.90;88.20;;;17.61;66.99;99056.53;5081676;28;21056;-87
2022/07/17 07:38:45;;;;;;;1.87;1.20;;;16.90;88.40;;;17.71;67.15;99062.22;5078471;28;20459;-81
2022/07/17 07:41:16;;;;;;;2.70;1.20;;;17.00;88.80;;;17.79;67.45;99055.91;5078951;28;20547;-81
2022/07/17 07:43:47;;;;;;;5.53;1.40;;;17.00;89.00;;;17.87;67.19;99056.50;5078115;28;20542;-81
2022/07/17 07:46:17;;;;;;;2.37;1.10;;;17.10;88.20;;;17.92;67.63;99051.38;5078940;28;20478;-81
2022/07/17 07:48:47;;;;;;;4.60;1.30;;;17.20;89.60;;;17.98;67.13;99047.06;5078482;28;20540;-81
2022/07/17 07:51:18;;;;;;;6.20;1.30;;;17.30;88.70;;;18.05;64.92;99046.03;5077994;28;20479;-81
2022/07/17 07:54:10;;;;;;;3.77;1.27;;;17.30;87.50;;;18.17;64.61;99048.81;5078377;28;20479;-81
2022/07/17 07:56:40;;;;;;;5.40;1.50;;;17.40;87.60;;;18.21;65.54;99042.09;5077498;28;20518;-81
2022/07/17 07:59:11;;;;;;;3.07;1.40;;;17.50;88.70;;;18.27;63.59;99035.13;5076114;28;20448;-81
2022/07/17 08:01:42;;;;;;;6.00;1.43;;;17.60;87.10;;;18.35;62.79;99042.84;5079270;28;21060;-81
2022/07/17 08:04:12;;;;;;;3.37;1.40;;;17.60;86.50;;;18.42;61.38;99044.44;5095461;27;21122;-81
2022/07/17 08:06:42;;;;;;;4.03;1.40;;;17.80;85.80;;;18.49;61.50;99031.97;5077628;28;20483;-81
2022/07/17 08:09:15;;;;;;;7.30;4.40;;;17.80;86.10;;;18.57;61.87;99046.78;5063077;28;20463;-84
2022/07/17 08:11:46;;;;;;;4.00;2.23;;;17.90;86.60;;;18.66;61.01;99050.00;5078429;28;20866;-81
2022/07/17 08:14:16;;;;;;;2.67;1.17;;;18.00;85.70;;;18.80;59.34;99051.56;5077917;28;20846;-81
2022/07/17 08:16:46;;;;;;;8.93;1.87;;;18.30;84.60;;;18.91;59.26;99056.16;5076284;28;20466;-81
2022/07/17 08:19:16;;;;;;;3.80;1.33;;;18.40;84.70;;;18.99;58.74;99050.56;5078021;28;20464;-81
2022/07/17 08:21:46;;;;;;;2.90;1.27;;;18.40;84.40;;;19.11;58.71;99054.16;5077672;28;20961;-81
2022/07/17 08:24:17;;;;;;;3.10;1.27;;;18.50;84.70;;;19.23;57.77;99052.41;5081387;28;20822;-81
2022/07/17 08:26:47;;;;;;;9.13;1.50;;;18.60;84.00;;;19.33;57.87;99046.63;5079302;28;20456;-81
2022/07/17 08:29:16;;;;;;;6.30;3.20;;;18.70;84.20;;;19.41;57.27;99033.91;5077885;28;20514;-82
2022/07/17 08:32:07;;;;;;;3.20;1.40;;;18.70;83.70;;;19.51;56.16;99038.72;5078454;28;21167;-80
2022/07/17 08:34:37;;;;;;;2.63;1.33;;;19.00;82.80;;;19.61;55.20;99043.53;5079205;28;22619;-81
2022/07/17 08:37:07;;;;;;;2.27;1.10;;;19.10;82.00;;;19.72;54.43;99042.78;5078020;28;20532;-81
2022/07/17 08:39:39;;;;;;;3.53;1.43;;;19.20;81.40;;;19.78;54.01;99033.94;5080150;28;21071;-81
2022/07/17 08:42:17;;;;;;;2.57;1.40;;;19.20;81.20;;;19.87;53.93;99028.13;5080372;28;20447;-81
2022/07/17 08:44:50;;;;;;;4.63;1.37;;;19.40;81.10;;;20.00;53.15;99021.81;5075591;28;21061;-82
2022/07/17 08:47:23;;;;;;;2.40;1.33;;;19.50;80.30;;;20.12;52.85;99028.03;5075667;28;20487;-81
2022/07/17 08:49:54;;;;;;;6.70;1.60;;;19.60;80.50;;;20.21;52.87;99021.34;5080420;28;20456;-80
2022/07/17 08:52:26;;;;;;;5.93;1.43;;;19.70;80.40;;;20.33;52.36;99021.44;5077136;28;20463;-81
2022/07/17 08:54:58;;;;;;;2.20;1.10;;;19.80;80.20;;;20.40;52.39;99027.47;5077994;28;20605;-80
2022/07/17 08:57:29;;;;;;;6.13;1.30;;;19.90;80.40;;;20.43;52.28;99027.84;5075671;28;20463;-80
2022/07/17 09:00:01;;;;;;;4.90;1.57;;;19.90;80.40;;;20.49;52.60;99026.09;5078515;28;20550;-80
2022/07/17 09:02:35;;;;;;;4.40;1.63;;;19.90;80.70;;;20.55;52.16;99014.56;5074610;28;20551;-80
2022/07/17 09:05:06;;;;;;;2.80;1.40;;;20.00;80.10;;;20.64;51.26;99015.06;5078849;28;20533;-80
2022/07/17 09:07:48;;;;;;;4.10;1.47;;;20.00;79.20;;;20.67;50.24;99012.75;5075607;28;20487;-81
2022/07/17 09:10:31;;;;;;;3.63;1.50;;;20.10;78.20;;;20.75;49.57;99014.28;5074013;28;21033;-81
2022/07/17 09:13:01;;;;;;;2.00;1.23;;;20.20;77.70;;;20.78;49.37;99011.97;5080506;28;20464;-81
2022/07/17 09:15:35;;;;;;;4.50;1.50;;;20.20;77.80;;;20.80;49.62;99009.88;5077824;28;20489;-81
2022/07/17 09:18:10;;;;;;;4.50;1.43;;;20.10;77.00;;;20.81;49.85;99018.69;5080377;28;20458;-84
2022/07/17 09:20:47;;;;;;;77.83;40.23;;;20.20;78.20;;;20.83;49.95;99016.59;5075306;28;20455;-80
2022/07/17 09:23:21;;;;;;;3.40;1.47;;;20.20;78.60;;;20.89;48.35;99019.16;5078684;28;20535;-81
2022/07/17 09:25:55;;;;;;;1.37;1.07;;;20.30;76.80;;;20.93;47.91;99022.19;5079148;28;20479;-80
2022/07/17 09:28:25;;;;;;;3.13;1.30;;;20.40;76.20;;;20.97;47.15;99021.47;5080300;28;20955;-80
2022/07/17 09:30:57;;;;;;;4.03;1.33;;;20.30;75.30;;;21.02;47.67;99015.47;5077823;28;20510;-80
2022/07/17 09:33:29;;;;;;;4.00;1.10;;;20.40;75.40;;;21.06;45.05;99012.13;5078586;28;20840;-82
2022/07/17 09:36:09;;;;;;;3.33;1.33;;;20.40;72.90;;;21.11;45.78;99016.78;5077301;28;20571;-82
2022/07/17 09:38:44;;;;;;;3.40;1.40;;;20.50;73.90;;;21.16;44.83;99011.56;5078293;28;20504;-81
2022/07/17 09:41:19;;;;;;;4.33;1.63;;;20.60;73.20;;;21.24;44.45;99013.88;5075661;28;21123;-81
2022/07/17 09:43:52;;;;;;;4.23;1.30;;;20.70;72.50;;;21.29;43.90;99005.19;5076587;28;20489;-82
2022/07/17 09:46:28;;;;;;;3.70;1.50;;;20.70;72.00;;;21.33;44.25;99001.84;5076465;28;20456;-81
2022/07/17 09:49:01;;;;;;;2.70;1.30;;;20.70;71.80;;;21.37;44.01;99003.00;5076655;28;20490;-84
2022/07/17 09:51:34;;;;;;;38.03;18.90;;;20.80;72.80;;;21.40;44.17;99007.06;5076679;28;20467;-81
2022/07/17 09:54:07;;;;;;;3.07;2.17;;;20.70;72.60;;;21.41;44.71;99006.03;5076868;28;20464;-81
2022/07/17 09:56:39;;;;;;;30.63;17.10;;;20.70;72.70;;;21.46;44.66;99012.25;5075817;28;20541;-81
2022/07/17 09:59:11;;;;;;;7.53;2.27;;;20.70;72.50;;;21.49;44.31;99003.78;5076342;28;20528;-81
2022/07/17 10:01:43;;;;;;;4.70;1.50;;;20.80;73.00;;;21.61;42.64;99013.63;5079708;28;20464;-81
2022/07/17 10:04:14;;;;;;;4.90;1.60;;;21.00;70.80;;;21.65;41.58;99020.91;5077401;28;20476;-81
2022/07/17 10:06:44;;;;;;;10.40;1.60;;;21.20;69.10;;;21.72;41.34;99016.28;5077124;28;20466;-81
2022/07/17 10:09:14;;;;;;;2.03;1.00;;;21.20;69.40;;;21.78;41.98;99022.50;5078091;28;20977;-81
2022/07/17 10:11:46;;;;;;;2.87;1.50;;;21.20;70.10;;;21.81;41.71;99017.53;5075545;28;20460;-81
2022/07/17 10:14:18;;;;;;;2.10;1.40;;;21.20;69.90;;;21.82;42.12;99013.00;5079003;28;20435;-81
2022/07/17 10:16:48;;;;;;;2.80;1.50;;;21.20;70.10;;;21.86;41.88;99022.16;5078288;28;20491;-81
2022/07/17 10:19:21;;;;;;;5.00;1.20;;;21.20;70.30;;;21.90;41.85;99021.44;5077328;28;20490;-81
2022/07/17 10:21:56;;;;;;;3.80;1.43;;;21.40;70.30;;;21.96;41.82;99019.72;5079631;28;20427;-81
2022/07/17 10:24:27;;;;;;;3.30;1.27;;;21.40;70.10;;;22.04;42.42;99019.34;5076979;28;21034;-81
2022/07/17 10:27:00;;;;;;;3.83;1.20;;;21.50;70.60;;;22.07;40.45;99014.34;5077803;28;20463;-81
2022/07/17 10:29:34;;;;;;;1.93;1.10;;;21.40;67.40;;;22.14;39.57;99014.22;5081054;28;20443;-81
2022/07/17 10:32:16;;;;;;;2.40;1.10;;;21.50;67.00;;;22.19;40.11;99016.97;5079266;28;21074;-81
2022/07/17 10:34:50;;;;;;;1.80;1.23;;;21.50;67.50;;;22.20;39.26;99013.25;5077966;28;20447;-81